sensor_id;sensor_type;location;lat;lon;timestamp;pressure;altitude;pressure_sealevel;temperature;humidity
39891;BME280;25564;53.312;9.790;2022-08-27T00:00:36;100695.75;;;20.92;77.82
39891;BME280;25564;53.312;9.790;2022-08-27T00:03:07;100696.72;;;20.91;77.67
39891;BME280;25564;53.312;9.790;2022-08-27T00:05:39;100686.03;;;20.89;77.92
39891;BME280;25564;53.312;9.790;2022-08-27T00:08:12;100688.91;;;20.86;77.69
39891;BME280;25564;53.312;9.790;2022-08-27T00:10:43;100686.31;;;20.85;77.70
39891;BME280;25564;53.312;9.790;2022-08-27T00:13:15;100683.78;;;20.82;77.70
39891;BME280;25564;53.312;9.790;2022-08-27T00:15:46;100679.56;;;20.78;77.98
39891;BME280;25564;53.312;9.790;2022-08-27T00:18:18;100649.00;;;20.63;78.01
39891;BME280;25564;53.312;9.790;2022-08-27T00:20:53;100653.34;;;20.66;77.84
39891;BME280;25564;53.312;9.790;2022-08-27T00:23:24;100681.00;;;20.83;77.79
39891;BME280;25564;53.312;9.790;2022-08-27T00:25:57;100684.38;;;20.87;78.03
39891;BME280;25564;53.312;9.790;2022-08-27T00:28:29;100654.97;;;20.68;77.74
39891;BME280;25564;53.312;9.790;2022-08-27T00:31:02;100686.31;;;20.85;77.89
39891;BME280;25564;53.312;9.790;2022-08-27T00:33:35;100688.31;;;20.81;78.00
39891;BME280;25564;53.312;9.790;2022-08-27T00:36:07;100684.28;;;20.74;78.04
39891;BME280;25564;53.312;9.790;2022-08-27T00:38:40;100682.38;;;20.76;77.73
39891;BME280;25564;53.312;9.790;2022-08-27T00:41:12;100699.50;;;20.75;78.33
39891;BME280;25564;53.312;9.790;2022-08-27T00:43:56;100684.28;;;20.74;78.01
39891;BME280;25564;53.312;9.790;2022-08-27T00:46:47;100690.53;;;20.75;77.98
39891;BME280;25564;53.312;9.790;2022-08-27T00:49:23;100696.81;;;20.75;78.44
39891;BME280;25564;53.312;9.790;2022-08-27T00:52:06;100669.78;;;20.61;77.96
39891;BME280;25564;53.312;9.790;2022-08-27T00:54:38;100689.00;;;20.71;77.97
39891;BME280;25564;53.312;9.790;2022-08-27T00:57:10;100679.94;;;20.72;78.15
39891;BME280;25564;53.312;9.790;2022-08-27T00:59:44;100688.63;;;20.77;77.94
39891;BME280;25564;53.312;9.790;2022-08-27T01:02:15;100684.47;;;20.71;77.89
39891;BME280;25564;53.312;9.790;2022-08-27T01:04:54;100663.63;;;20.59;77.74
39891;BME280;25564;53.312;9.790;2022-08-27T01:07:28;100694.09;;;20.75;77.99
39891;BME280;25564;53.312;9.790;2022-08-27T01:10:03;100690.53;;;20.75;77.75
39891;BME280;25564;53.312;9.790;2022-08-27T01:12:37;100698.72;;;20.73;78.29
39891;BME280;25564;53.312;9.790;2022-08-27T01:15:12;100697.84;;;20.73;77.91
39891;BME280;25564;53.312;9.790;2022-08-27T01:17:50;100705.09;;;20.72;78.42
39891;BME280;25564;53.312;9.790;2022-08-27T01:20:44;100690.03;;;20.68;78.40
39891;BME280;25564;53.312;9.790;2022-08-27T01:23:36;100703.25;;;20.73;78.44
39891;BME280;25564;53.312;9.790;2022-08-27T01:26:12;100661.56;;;20.48;78.27
39891;BME280;25564;53.312;9.790;2022-08-27T01:28:45;100718.56;;;20.72;78.31
39891;BME280;25564;53.312;9.790;2022-08-27T01:31:18;100720.47;;;20.70;77.82
39891;BME280;25564;53.312;9.790;2022-08-27T01:34:01;100713.53;;;20.66;78.58
39891;BME280;25564;53.312;9.790;2022-08-27T01:36:33;100717.19;;;20.65;77.99
39891;BME280;25564;53.312;9.790;2022-08-27T01:39:04;100717.56;;;20.59;78.07
39891;BME280;25564;53.312;9.790;2022-08-27T01:41:36;100725.72;;;20.58;78.37
39891;BME280;25564;53.312;9.790;2022-08-27T01:44:07;100734.97;;;20.53;78.37
39891;BME280;25564;53.312;9.790;2022-08-27T01:46:39;100730.53;;;20.52;78.83
39891;BME280;25564;53.312;9.790;2022-08-27T01:49:10;100734.97;;;20.53;78.48
39891;BME280;25564;53.312;9.790;2022-08-27T01:51:42;100737.84;;;20.50;78.73
39891;BME280;25564;53.312;9.790;2022-08-27T01:54:13;100729.16;;;20.45;78.66
39891;BME280;25564;53.312;9.790;2022-08-27T01:56:45;100740.81;;;20.46;78.67
39891;BME280;25564;53.312;9.790;2022-08-27T01:59:16;100736.72;;;20.39;79.00
39891;BME280;25564;53.312;9.790;2022-08-27T02:01:48;100741.31;;;20.37;78.87
39891;BME280;25564;53.312;9.790;2022-08-27T02:04:21;100728.34;;;20.28;79.29
39891;BME280;25564;53.312;9.790;2022-08-27T02:06:53;100725.84;;;20.24;79.35
39891;BME280;25564;53.312;9.790;2022-08-27T02:09:25;100728.53;;;20.24;79.85
39891;BME280;25564;53.312;9.790;2022-08-27T02:11:56;100728.34;;;20.28;79.76
39891;BME280;25564;53.312;9.790;2022-08-27T02:14:28;100733.38;;;20.34;79.71
39891;BME280;25564;53.312;9.790;2022-08-27T02:17:00;100722.78;;;20.31;79.84
39891;BME280;25564;53.312;9.790;2022-08-27T02:19:31;100724.53;;;20.32;80.03
39891;BME280;25564;53.312;9.790;2022-08-27T02:22:03;100734.91;;;20.39;80.02
39891;BME280;25564;53.312;9.790;2022-08-27T02:24:34;100736.63;;;20.40;79.55
39891;BME280;25564;53.312;9.790;2022-08-27T02:27:06;100734.81;;;20.41;79.61
39891;BME280;25564;53.312;9.790;2022-08-27T02:29:38;100728.00;;;20.34;79.44
39891;BME280;25564;53.312;9.790;2022-08-27T02:32:09;100726.97;;;20.20;79.81
39891;BME280;25564;53.312;9.790;2022-08-27T02:35:01;100721.91;;;20.14;79.64
39891;BME280;25564;53.312;9.790;2022-08-27T02:37:35;100716.09;;;20.06;80.17
39891;BME280;25564;53.312;9.790;2022-08-27T02:40:08;100717.41;;;19.99;79.79
39891;BME280;25564;53.312;9.790;2022-08-27T02:42:42;100713.56;;;19.87;80.54
39891;BME280;25564;53.312;9.790;2022-08-27T02:45:14;100707.66;;;19.81;80.87
39891;BME280;25564;53.312;9.790;2022-08-27T02:47:46;100719.56;;;19.77;81.10
39891;BME280;25564;53.312;9.790;2022-08-27T02:50:18;100710.72;;;19.75;81.18
39891;BME280;25564;53.312;9.790;2022-08-27T02:52:50;100714.28;;;19.75;81.67
39891;BME280;25564;53.312;9.790;2022-08-27T02:55:21;100692.91;;;19.56;81.53
39891;BME280;25564;53.312;9.790;2022-08-27T02:57:53;100720.72;;;19.73;81.72
39891;BME280;25564;53.312;9.790;2022-08-27T03:00:25;100722.63;;;19.71;81.65
39891;BME280;25564;53.312;9.790;2022-08-27T03:02:59;100713.94;;;19.66;82.20
39891;BME280;25564;53.312;9.790;2022-08-27T03:05:31;100718.53;;;19.64;81.90
39891;BME280;25564;53.312;9.790;2022-08-27T03:08:04;100686.41;;;19.43;82.67
39891;BME280;25564;53.312;9.790;2022-08-27T03:10:35;100713.41;;;19.59;83.27
39891;BME280;25564;53.312;9.790;2022-08-27T03:13:07;100715.75;;;19.65;83.16
39891;BME280;25564;53.312;9.790;2022-08-27T03:15:39;100717.41;;;19.68;82.91
39891;BME280;25564;53.312;9.790;2022-08-27T03:18:10;100714.81;;;19.66;83.30
39891;BME280;25564;53.312;9.790;2022-08-27T03:20:53;100703.25;;;19.64;82.93
39891;BME280;25564;53.312;9.790;2022-08-27T03:23:27;100656.19;;;19.38;83.13
39891;BME280;25564;53.312;9.790;2022-08-27T03:26:04;100696.91;;;19.65;82.52
39891;BME280;25564;53.312;9.790;2022-08-27T03:28:39;100713.06;;;19.65;82.88
39891;BME280;25564;53.312;9.790;2022-08-27T03:31:16;100699.84;;;19.61;83.31
39891;BME280;25564;53.312;9.790;2022-08-27T03:33:55;100704.69;;;19.54;83.44
39891;BME280;25564;53.312;9.790;2022-08-27T03:36:28;100683.09;;;19.38;83.54
39891;BME280;25564;53.312;9.790;2022-08-27T03:39:00;100718.25;;;19.52;83.43
39891;BME280;25564;53.312;9.790;2022-08-27T03:41:31;100715.16;;;19.43;83.14
39891;BME280;25564;53.312;9.790;2022-08-27T03:44:23;100714.44;;;19.39;83.89
39891;BME280;25564;53.312;9.790;2022-08-27T03:46:54;100681.25;;;19.23;83.91
39891;BME280;25564;53.312;9.790;2022-08-27T03:49:25;100673.34;;;19.20;84.51
39891;BME280;25564;53.312;9.790;2022-08-27T03:51:57;100697.84;;;19.31;84.66
39891;BME280;25564;53.312;9.790;2022-08-27T03:54:29;100709.31;;;19.35;84.45
39891;BME280;25564;53.312;9.790;2022-08-27T03:57:02;100712.88;;;19.35;84.48
39891;BME280;25564;53.312;9.790;2022-08-27T03:59:33;100713.81;;;19.34;84.65
39891;BME280;25564;53.312;9.790;2022-08-27T04:02:06;100698.88;;;19.28;85.13
39891;BME280;25564;53.312;9.790;2022-08-27T04:04:37;100712.94;;;19.34;84.74
39891;BME280;25564;53.312;9.790;2022-08-27T04:07:09;100714.84;;;19.32;84.57
39891;BME280;25564;53.312;9.790;2022-08-27T04:09:40;100706.31;;;19.23;84.92
39891;BME280;25564;53.312;9.790;2022-08-27T04:12:12;100706.41;;;19.22;84.82
39891;BME280;25564;53.312;9.790;2022-08-27T04:14:44;100702.75;;;19.23;84.86
39891;BME280;25564;53.312;9.790;2022-08-27T04:17:15;100706.16;;;19.26;84.99
39891;BME280;25564;53.312;9.790;2022-08-27T04:19:47;100680.88;;;19.13;85.30
39891;BME280;25564;53.312;9.790;2022-08-27T04:22:18;100699.75;;;19.29;85.17
39891;BME280;25564;53.312;9.790;2022-08-27T04:24:50;100704.09;;;19.32;85.34
39891;BME280;25564;53.312;9.790;2022-08-27T04:27:22;100690.19;;;19.23;85.12
39891;BME280;25564;53.312;9.790;2022-08-27T04:29:56;100701.56;;;19.28;85.20
39891;BME280;25564;53.312;9.790;2022-08-27T04:32:28;100696.59;;;19.21;84.74
39891;BME280;25564;53.312;9.790;2022-08-27T04:35:00;100729.34;;;19.29;85.12
39891;BME280;25564;53.312;9.790;2022-08-27T04:37:32;100716.22;;;19.23;84.98
39891;BME280;25564;53.312;9.790;2022-08-27T04:40:03;100731.25;;;19.27;84.97
39891;BME280;25564;53.312;9.790;2022-08-27T04:42:35;100690.22;;;19.06;84.81
39891;BME280;25564;53.312;9.790;2022-08-27T04:45:07;100684.84;;;19.06;85.21
39891;BME280;25564;53.312;9.790;2022-08-27T04:47:38;100712.56;;;19.24;85.17
39891;BME280;25564;53.312;9.790;2022-08-27T04:50:10;100699.94;;;19.09;85.11
39891;BME280;25564;53.312;9.790;2022-08-27T04:52:43;100722.47;;;19.23;84.86
39891;BME280;25564;53.312;9.790;2022-08-27T04:55:15;100722.38;;;19.25;84.88
39891;BME280;25564;53.312;9.790;2022-08-27T04:57:46;100721.59;;;19.23;84.76
39891;BME280;25564;53.312;9.790;2022-08-27T05:00:18;100718.91;;;19.23;84.86
39891;BME280;25564;53.312;9.790;2022-08-27T05:02:49;100721.59;;;19.23;84.98
39891;BME280;25564;53.312;9.790;2022-08-27T05:05:20;100720.47;;;19.27;85.00
39891;BME280;25564;53.312;9.790;2022-08-27T05:07:53;100724.03;;;19.27;85.04
39891;BME280;25564;53.312;9.790;2022-08-27T05:10:25;100718.34;;;19.34;84.77
39891;BME280;25564;53.312;9.790;2022-08-27T05:12:56;100721.72;;;19.37;84.74
39891;BME280;25564;53.312;9.790;2022-08-27T05:15:30;100729.66;;;19.40;84.37
39891;BME280;25564;53.312;9.790;2022-08-27T05:18:02;100724.09;;;19.43;84.21
39891;BME280;25564;53.312;9.790;2022-08-27T05:20:44;100722.34;;;19.42;84.29
39891;BME280;25564;53.312;9.790;2022-08-27T05:23:18;100735.47;;;19.48;84.14
39891;BME280;25564;53.312;9.790;2022-08-27T05:25:51;100729.22;;;19.48;84.07
39891;BME280;25564;53.312;9.790;2022-08-27T05:28:27;100732.78;;;19.48;83.95
39891;BME280;25564;53.312;9.790;2022-08-27T05:31:04;100745.22;;;19.51;84.12
39891;BME280;25564;53.312;9.790;2022-08-27T05:33:38;100737.97;;;19.53;83.66
39891;BME280;25564;53.312;9.790;2022-08-27T05:36:20;100743.25;;;19.54;83.49
39891;BME280;25564;53.312;9.790;2022-08-27T05:38:53;100743.09;;;19.57;83.35
39891;BME280;25564;53.312;9.790;2022-08-27T05:41:28;100737.72;;;19.57;83.54
39891;BME280;25564;53.312;9.790;2022-08-27T05:44:07;100727.97;;;19.55;83.58
39891;BME280;25564;53.312;9.790;2022-08-27T05:46:59;100732.50;;;19.54;83.55
39891;BME280;25564;53.312;9.790;2022-08-27T05:49:31;100729.56;;;19.59;83.53
39891;BME280;25564;53.312;9.790;2022-08-27T05:52:07;100710.22;;;19.51;83.59
39891;BME280;25564;53.312;9.790;2022-08-27T05:54:38;100734.44;;;19.68;83.20
39891;BME280;25564;53.312;9.790;2022-08-27T05:57:10;100722.88;;;19.66;83.15
39891;BME280;25564;53.312;9.790;2022-08-27T05:59:41;100731.50;;;19.73;82.64
39891;BME280;25564;53.312;9.790;2022-08-27T06:02:31;100733.91;;;19.77;82.76
39891;BME280;25564;53.312;9.790;2022-08-27T06:05:07;100728.50;;;19.77;82.33
39891;BME280;25564;53.312;9.790;2022-08-27T06:07:38;100737.47;;;19.78;82.87
39891;BME280;25564;53.312;9.790;2022-08-27T06:10:10;100717.25;;;19.71;82.14
39891;BME280;25564;53.312;9.790;2022-08-27T06:12:42;100745.19;;;19.84;82.66
39891;BME280;25564;53.312;9.790;2022-08-27T06:15:13;100745.09;;;19.85;82.06
39891;BME280;25564;53.312;9.790;2022-08-27T06:17:45;100751.28;;;19.87;81.45
39891;BME280;25564;53.312;9.790;2022-08-27T06:20:16;100751.44;;;19.84;81.86
39891;BME280;25564;53.312;9.790;2022-08-27T06:22:48;100742.59;;;19.82;81.34
39891;BME280;25564;53.312;9.790;2022-08-27T06:25:20;100743.63;;;19.80;80.90
39891;BME280;25564;53.312;9.790;2022-08-27T06:27:51;100746.94;;;19.85;81.38
39891;BME280;25564;53.312;9.790;2022-08-27T06:30:22;100748.50;;;19.89;81.42
39891;BME280;25564;53.312;9.790;2022-08-27T06:32:54;100746.69;;;19.89;80.70
39891;BME280;25564;53.312;9.790;2022-08-27T06:35:25;100750.25;;;19.90;80.74
39891;BME280;25564;53.312;9.790;2022-08-27T06:38:01;100728.69;;;19.90;80.73
39891;BME280;25564;53.312;9.790;2022-08-27T06:40:33;100696.47;;;19.73;80.26
39891;BME280;25564;53.312;9.790;2022-08-27T06:43:04;100745.28;;;19.98;79.84
39891;BME280;25564;53.312;9.790;2022-08-27T06:45:37;100743.22;;;20.03;80.48
39891;BME280;25564;53.312;9.790;2022-08-27T06:48:09;100741.22;;;20.07;79.94
39891;BME280;25564;53.312;9.790;2022-08-27T06:50:41;100741.22;;;20.07;79.44
39891;BME280;25564;53.312;9.790;2022-08-27T06:53:13;100749.03;;;20.11;79.28
39891;BME280;25564;53.312;9.790;2022-08-27T06:55:46;100746.16;;;20.14;79.54
39891;BME280;25564;53.312;9.790;2022-08-27T06:58:18;100750.94;;;20.09;79.43
39891;BME280;25564;53.312;9.790;2022-08-27T07:00:50;100768.84;;;20.10;78.70
39891;BME280;25564;53.312;9.790;2022-08-27T07:03:21;100753.81;;;20.06;79.24
39891;BME280;25564;53.312;9.790;2022-08-27T07:05:53;100747.66;;;20.04;79.09
39891;BME280;25564;53.312;9.790;2022-08-27T07:08:24;100759.91;;;20.10;78.87
39891;BME280;25564;53.312;9.790;2022-08-27T07:10:56;100752.94;;;20.06;78.87
39891;BME280;25564;53.312;9.790;2022-08-27T07:13:28;100751.28;;;20.03;78.41
39891;BME280;25564;53.312;9.790;2022-08-27T07:16:21;100759.28;;;20.05;78.40
39891;BME280;25564;53.312;9.790;2022-08-27T07:18:57;100776.31;;;20.05;78.70
39891;BME280;25564;53.312;9.790;2022-08-27T07:21:34;100774.84;;;20.00;78.79
39891;BME280;25564;53.312;9.790;2022-08-27T07:24:06;100773.19;;;19.97;78.31
39891;BME280;25564;53.312;9.790;2022-08-27T07:26:41;100776.06;;;19.94;78.33
39891;BME280;25564;53.312;9.790;2022-08-27T07:29:13;100774.22;;;19.95;78.54
39891;BME280;25564;53.312;9.790;2022-08-27T07:31:45;100752.50;;;19.82;78.64
39891;BME280;25564;53.312;9.790;2022-08-27T07:34:17;100788.41;;;19.98;78.38
39891;BME280;25564;53.312;9.790;2022-08-27T07:36:48;100752.16;;;19.88;78.16
39891;BME280;25564;53.312;9.790;2022-08-27T07:39:21;100776.59;;;20.01;78.28
39891;BME280;25564;53.312;9.790;2022-08-27T07:41:55;100779.09;;;20.04;78.18
39891;BME280;25564;53.312;9.790;2022-08-27T07:44:45;100758.31;;;19.90;78.40
39891;BME280;25564;53.312;9.790;2022-08-27T07:47:16;100759.97;;;19.92;77.99
39891;BME280;25564;53.312;9.790;2022-08-27T07:49:48;100775.72;;;20.00;77.40
39891;BME280;25564;53.312;9.790;2022-08-27T07:52:20;100788.84;;;20.06;77.86
39891;BME280;25564;53.312;9.790;2022-08-27T07:54:56;100781.72;;;20.05;77.06
39891;BME280;25564;53.312;9.790;2022-08-27T07:57:30;100788.84;;;20.06;77.47
39891;BME280;25564;53.312;9.790;2022-08-27T08:00:03;100790.75;;;20.04;77.89
39891;BME280;25564;53.312;9.790;2022-08-27T08:02:35;100779.63;;;19.95;77.66
39891;BME280;25564;53.312;9.790;2022-08-27T08:05:07;100801.19;;;20.10;77.38
39891;BME280;25564;53.312;9.790;2022-08-27T08:07:40;100802.75;;;20.14;77.22
39891;BME280;25564;53.312;9.790;2022-08-27T08:10:11;100806.94;;;20.20;77.43
39891;BME280;25564;53.312;9.790;2022-08-27T08:12:43;100760.25;;;20.04;77.67
39891;BME280;25564;53.312;9.790;2022-08-27T08:15:15;100799.81;;;20.35;77.40
39891;BME280;25564;53.312;9.790;2022-08-27T08:17:47;100807.50;;;20.42;76.99
39891;BME280;25564;53.312;9.790;2022-08-27T08:20:18;100818.81;;;20.49;76.74
39891;BME280;25564;53.312;9.790;2022-08-27T08:23:10;100795.75;;;20.43;76.10
39891;BME280;25564;53.312;9.790;2022-08-27T08:25:41;100803.50;;;20.49;75.95
39891;BME280;25564;53.312;9.790;2022-08-27T08:28:13;100809.41;;;20.56;76.38
39891;BME280;25564;53.312;9.790;2022-08-27T08:30:44;100778.53;;;20.46;75.89
39891;BME280;25564;53.312;9.790;2022-08-27T08:33:17;100810.78;;;20.63;75.84
39891;BME280;25564;53.312;9.790;2022-08-27T08:35:49;100817.56;;;20.70;75.14
39891;BME280;25564;53.312;9.790;2022-08-27T08:38:20;100816.34;;;20.76;75.44
39891;BME280;25564;53.312;9.790;2022-08-27T08:40:52;100813.19;;;20.83;75.01
39891;BME280;25564;53.312;9.790;2022-08-27T08:43:34;100774.44;;;20.70;74.78
39891;BME280;25564;53.312;9.790;2022-08-27T08:46:11;100824.03;;;20.98;74.57
39891;BME280;25564;53.312;9.790;2022-08-27T08:48:51;100816.47;;;20.88;74.05
39891;BME280;25564;53.312;9.790;2022-08-27T08:51:29;100820.69;;;20.78;73.91
39891;BME280;25564;53.312;9.790;2022-08-27T08:54:09;100783.59;;;20.52;73.84
39891;BME280;25564;53.312;9.790;2022-08-27T08:56:57;100814.28;;;20.65;73.85
39891;BME280;25564;53.312;9.790;2022-08-27T08:59:37;100833.59;;;20.73;73.64
39891;BME280;25564;53.312;9.790;2022-08-27T09:02:12;100831.84;;;20.72;74.03
39891;BME280;25564;53.312;9.790;2022-08-27T09:04:44;100814.88;;;20.54;73.99
39891;BME280;25564;53.312;9.790;2022-08-27T09:07:28;100841.06;;;20.68;73.69
39891;BME280;25564;53.312;9.790;2022-08-27T09:10:24;100838.28;;;20.70;73.72
39891;BME280;25564;53.312;9.790;2022-08-27T09:13:04;100838.03;;;20.74;73.69
39891;BME280;25564;53.312;9.790;2022-08-27T09:15:38;100846.72;;;20.79;73.75
39891;BME280;25564;53.312;9.790;2022-08-27T09:18:12;100804.03;;;20.56;73.74
39891;BME280;25564;53.312;9.790;2022-08-27T09:20:49;100844.19;;;20.76;73.47
39891;BME280;25564;53.312;9.790;2022-08-27T09:26:01;100850.63;;;20.74;73.77
39891;BME280;25564;53.312;9.790;2022-08-27T09:28:32;100843.75;;;20.68;73.79
39891;BME280;25564;53.312;9.790;2022-08-27T09:31:22;100855.69;;;20.64;73.60
39891;BME280;25564;53.312;9.790;2022-08-27T09:33:55;100848.72;;;20.60;73.89
39891;BME280;25564;53.312;9.790;2022-08-27T09:36:27;100856.03;;;20.58;73.98
39891;BME280;25564;53.312;9.790;2022-08-27T09:39:02;100828.03;;;20.45;74.00
39891;BME280;25564;53.312;9.790;2022-08-27T09:41:41;100858.56;;;20.61;73.80
39891;BME280;25564;53.312;9.790;2022-08-27T09:44:17;100846.63;;;20.65;74.16
39891;BME280;25564;53.312;9.790;2022-08-27T09:46:58;100851.84;;;20.68;74.22
39891;BME280;25564;53.312;9.790;2022-08-27T09:49:30;100845.06;;;20.61;73.94
39891;BME280;25564;53.312;9.790;2022-08-27T09:52:07;100851.50;;;20.74;73.81
39891;BME280;25564;53.312;9.790;2022-08-27T09:54:43;100830.47;;;20.65;73.85
39891;BME280;25564;53.312;9.790;2022-08-27T09:57:34;100830.00;;;20.73;73.58
39891;BME280;25564;53.312;9.790;2022-08-27T10:00:14;100861.38;;;20.89;73.61
39891;BME280;25564;53.312;9.790;2022-08-27T10:02:51;100842.50;;;20.89;73.91
39891;BME280;25564;53.312;9.790;2022-08-27T10:05:29;100849.34;;;20.95;73.86
39891;BME280;25564;53.312;9.790;2022-08-27T10:08:18;100814.13;;;20.82;73.65
39891;BME280;25564;53.312;9.790;2022-08-27T10:10:58;100858.03;;;21.16;73.34
39891;BME280;25564;53.312;9.790;2022-08-27T10:13:36;100829.84;;;21.06;72.89
39891;BME280;25564;53.312;9.790;2022-08-27T10:16:44;100861.31;;;21.21;72.92
39891;BME280;25564;53.312;9.790;2022-08-27T10:19:43;100855.97;;;21.05;72.50
39891;BME280;25564;53.312;9.790;2022-08-27T10:22:27;100856.13;;;21.02;72.83
39891;BME280;25564;53.312;9.790;2022-08-27T10:25:25;100853.53;;;21.01;72.71
39891;BME280;25564;53.312;9.790;2022-08-27T10:28:28;100863.53;;;20.99;72.58
39891;BME280;25564;53.312;9.790;2022-08-27T10:31:21;100840.25;;;20.82;72.90
39891;BME280;25564;53.312;9.790;2022-08-27T10:34:15;100864.59;;;20.96;72.66
39891;BME280;25564;53.312;9.790;2022-08-27T10:42:39;100863.44;;;21.00;72.34
39891;BME280;25564;53.312;9.790;2022-08-27T10:45:30;100862.50;;;21.01;71.92
39891;BME280;25564;53.312;9.790;2022-08-27T10:51:05;100846.16;;;20.88;72.06
39891;BME280;25564;53.312;9.790;2022-08-27T10:53:44;100883.44;;;21.12;72.24
39891;BME280;25564;53.312;9.790;2022-08-27T10:56:45;100868.13;;;21.28;71.68
39891;BME280;25564;53.312;9.790;2022-08-27T10:59:53;100871.94;;;21.40;71.53
39891;BME280;25564;53.312;9.790;2022-08-27T11:08:00;100868.41;;;21.53;70.99
39891;BME280;25564;53.312;9.790;2022-08-27T11:10:38;100852.75;;;21.44;70.83
39891;BME280;25564;53.312;9.790;2022-08-27T11:13:18;100872.06;;;21.52;70.54
39891;BME280;25564;53.312;9.790;2022-08-27T11:15:53;100865.09;;;21.48;70.28
39891;BME280;25564;53.312;9.790;2022-08-27T11:18:39;100862.59;;;21.45;70.25
39891;BME280;25564;53.312;9.790;2022-08-27T11:21:31;100858.75;;;21.49;70.25
39891;BME280;25564;53.312;9.790;2022-08-27T11:24:24;100875.81;;;21.50;69.99
39891;BME280;25564;53.312;9.790;2022-08-27T11:27:06;100844.44;;;21.33;70.05
39891;BME280;25564;53.312;9.790;2022-08-27T11:29:45;100875.13;;;21.46;70.23
39891;BME280;25564;53.312;9.790;2022-08-27T11:35:17;100863.56;;;21.44;69.86
39891;BME280;25564;53.312;9.790;2022-08-27T11:40:51;100859.69;;;21.48;70.06
39891;BME280;25564;53.312;9.790;2022-08-27T11:43:28;100857.31;;;21.58;69.68
39891;BME280;25564;53.312;9.790;2022-08-27T11:46:06;100863.13;;;21.66;69.46
39891;BME280;25564;53.312;9.790;2022-08-27T11:48:41;100865.16;;;21.77;69.32
39891;BME280;25564;53.312;9.790;2022-08-27T11:51:30;100866.13;;;21.76;68.42
39891;BME280;25564;53.312;9.790;2022-08-27T11:54:31;100867.97;;;21.75;68.57
39891;BME280;25564;53.312;9.790;2022-08-27T11:57:34;100865.16;;;21.77;68.72
39891;BME280;25564;53.312;9.790;2022-08-27T12:00:16;100859.75;;;21.91;69.03
39891;BME280;25564;53.312;9.790;2022-08-27T12:02:57;100859.00;;;22.03;68.35
39891;BME280;25564;53.312;9.790;2022-08-27T12:05:43;100850.31;;;22.12;67.93
39891;BME280;25564;53.312;9.790;2022-08-27T12:13:48;100864.53;;;22.71;66.69
39891;BME280;25564;53.312;9.790;2022-08-27T12:16:35;100861.84;;;22.98;66.22
39891;BME280;25564;53.312;9.790;2022-08-27T12:19:29;100863.97;;;23.20;65.32
39891;BME280;25564;53.312;9.790;2022-08-27T12:22:21;100833.22;;;23.21;64.69
39891;BME280;25564;53.312;9.790;2022-08-27T12:24:57;100868.47;;;23.46;64.77
39891;BME280;25564;53.312;9.790;2022-08-27T12:27:31;100841.38;;;23.46;63.93
39891;BME280;25564;53.312;9.790;2022-08-27T12:30:19;100867.47;;;23.74;63.07
39891;BME280;25564;53.312;9.790;2022-08-27T12:32:52;100837.75;;;23.73;63.31
39891;BME280;25564;53.312;9.790;2022-08-27T12:35:30;100835.38;;;23.81;62.48
39891;BME280;25564;53.312;9.790;2022-08-27T12:38:13;100853.22;;;23.96;61.59
39891;BME280;25564;53.312;9.790;2022-08-27T12:40:52;100868.41;;;24.11;61.53
39891;BME280;25564;53.312;9.790;2022-08-27T12:43:26;100839.66;;;24.22;61.07
39891;BME280;25564;53.312;9.790;2022-08-27T12:46:16;100836.72;;;24.37;59.96
39891;BME280;25564;53.312;9.790;2022-08-27T12:48:56;100859.31;;;24.74;60.45
39891;BME280;25564;53.312;9.790;2022-08-27T12:51:35;100838.00;;;24.81;59.69
39891;BME280;25564;53.312;9.790;2022-08-27T12:54:46;100840.94;;;25.02;58.19
39891;BME280;25564;53.312;9.790;2022-08-27T12:57:31;100836.25;;;25.28;58.71
39891;BME280;25564;53.312;9.790;2022-08-27T13:00:18;100836.78;;;25.44;57.58
39891;BME280;25564;53.312;9.790;2022-08-27T13:05:48;100801.34;;;25.10;56.72
39891;BME280;25564;53.312;9.790;2022-08-27T13:08:26;100805.97;;;25.21;56.86
39891;BME280;25564;53.312;9.790;2022-08-27T13:11:29;100831.34;;;25.44;55.59
39891;BME280;25564;53.312;9.790;2022-08-27T13:14:15;100831.25;;;25.46;55.63
39891;BME280;25564;53.312;9.790;2022-08-27T13:16:57;100824.03;;;25.33;55.48
39891;BME280;25564;53.312;9.790;2022-08-27T13:19:32;100809.94;;;25.28;55.51
39891;BME280;25564;53.312;9.790;2022-08-27T13:22:04;100833.09;;;25.45;55.39
39891;BME280;25564;53.312;9.790;2022-08-27T13:24:46;100833.88;;;25.58;55.24
39891;BME280;25564;53.312;9.790;2022-08-27T13:27:30;100822.69;;;25.74;55.24
39891;BME280;25564;53.312;9.790;2022-08-27T13:30:08;100823.44;;;25.98;54.21
39891;BME280;25564;53.312;9.790;2022-08-27T13:32:49;100814.63;;;26.06;53.52
39891;BME280;25564;53.312;9.790;2022-08-27T13:35:21;100822.06;;;26.15;53.29
39891;BME280;25564;53.312;9.790;2022-08-27T13:37:53;100814.41;;;26.31;53.48
39891;BME280;25564;53.312;9.790;2022-08-27T13:40:32;100824.16;;;26.45;52.72
39891;BME280;25564;53.312;9.790;2022-08-27T13:43:09;100821.47;;;26.34;51.74
39891;BME280;25564;53.312;9.790;2022-08-27T13:45:47;100812.53;;;26.21;51.95
39891;BME280;25564;53.312;9.790;2022-08-27T13:48:20;100812.53;;;26.10;52.03
39891;BME280;25564;53.312;9.790;2022-08-27T13:50:55;100786.38;;;25.97;51.70
39891;BME280;25564;53.312;9.790;2022-08-27T13:53:30;100795.97;;;26.01;51.11
39891;BME280;25564;53.312;9.790;2022-08-27T13:56:26;100810.56;;;26.12;51.09
39891;BME280;25564;53.312;9.790;2022-08-27T14:05:45;100791.72;;;25.53;50.81
39891;BME280;25564;53.312;9.790;2022-08-27T14:08:11;100791.66;;;25.30;51.24
39891;BME280;25564;53.312;9.790;2022-08-27T14:10:47;100801.53;;;25.20;52.02
39891;BME280;25564;53.312;9.790;2022-08-27T14:13:22;100796.78;;;25.11;51.81
39891;BME280;25564;53.312;9.790;2022-08-27T14:15:56;100817.19;;;25.17;51.94